Time,TemperatureF,DewpointF,PressureIn,WindDirection,WindDirectionDegrees,WindSpeedMPH,WindSpeedGustMPH,Humidity,HourlyPrecipIn,Conditions,Clouds,dailyrainin,SoftwareType,DateUTC
2013-01-13 00:00:00,5.4,-1.4,30.03,West,262,0.0,8.0,73,0.00,,,0.01,VWS V15.00,2013-01-13 06:00:00,
2013-01-13 00:03:00,5.4,-1.4,30.03,West,262,2.0,9.0,73,0.00,,OVC033,0.00,VWS V14.01,2013-01-13 06:03:00,
2013-01-13 00:08:00,5.4,-1.4,30.03,West,262,4.0,9.0,73,0.00,,OVC033,0.00,VWS V14.01,2013-01-13 06:08:00,
2013-01-13 00:13:00,5.4,-1.4,30.03,West,262,4.0,9.0,73,0.00,,OVC033,0.00,VWS V14.01,2013-01-13 06:13:00,
2013-01-13 00:15:00,5.4,-1.4,30.03,West,262,3.0,9.0,73,0.00,,,0.00,VWS V15.00,2013-01-13 06:15:00,
2013-01-13 00:18:00,5.4,-1.4,30.03,West,262,4.0,5.0,73,0.00,,OVC033,0.00,VWS V14.01,2013-01-13 06:18:00,
2013-01-13 00:23:00,5.4,-1.4,30.03,West,262,6.0,6.0,73,0.00,,OVC033,0.00,VWS V14.01,2013-01-13 06:23:00,
2013-01-13 00:29:00,5.4,-1.4,30.03,West,262,3.0,6.0,73,0.00,,OVC033,0.00,VWS V14.01,2013-01-13 06:29:00,
2013-01-13 00:30:00,5.4,-1.4,30.03,West,262,3.0,6.0,73,0.00,,,0.00,VWS V15.00,2013-01-13 06:30:00,
2013-01-13 00:34:00,5.4,-1.4,30.03,West,262,4.0,6.0,73,0.00,,OVC033,0.00,VWS V14.01,2013-01-13 06:34:00,
2013-01-13 00:39:00,5.6,-1.2,30.03,West,262,0.0,6.0,73,0.00,,OVC033,0.00,VWS V14.01,2013-01-13 06:39:00,
2013-01-13 00:44:00,5.6,-1.2,30.03,West,262,0.0,6.0,73,0.00,,OVC033,0.00,VWS V14.01,2013-01-13 06:44:00,
2013-01-13 00:45:00,5.6,-0.9,30.03,West,262,0.0,6.0,74,0.00,,,0.00,VWS V15.00,2013-01-13 06:45:00,
2013-01-13 00:49:00,5.6,-1.2,30.03,West,262,0.0,0.0,73,0.00,,OVC033,0.00,VWS V14.01,2013-01-13 06:49:00,
2013-01-13 00:54:00,5.6,-0.9,30.03,West,262,5.0,5.0,74,0.00,,OVC033,0.00,VWS V14.01,2013-01-13 06:54:00,
2013-01-13 00:59:00,5.6,-0.9,30.03,West,260,9.0,10.0,74,0.00,,OVC033,0.00,VWS V14.01,2013-01-13 06:59:00,
2013-01-13 01:00:00,5.6,-0.9,30.03,West,260,3.0,10.0,74,0.00,,,0.00,VWS V15.00,2013-01-13 07:00:00,
2013-01-13 01:04:00,5.6,-0.9,30.03,West,260,5.0,6.0,74,0.00,,OVC033,0.00,VWS V14.01,2013-01-13 07:04:00,
2013-01-13 01:09:00,5.6,-0.9,30.03,West,260,0.0,7.0,74,0.00,,OVC033,0.00,VWS V14.01,2013-01-13 07:09:00,
2013-01-13 01:14:00,5.6,-1.2,30.03,West,260,6.0,9.0,73,0.00,,OVC033,0.00,VWS V14.01,2013-01-13 07:14:00,
2013-01-13 01:15:00,5.6,-1.2,30.03,West,260,6.0,9.0,73,0.00,,,0.00,VWS V15.00,2013-01-13 07:15:00,
2013-01-13 01:19:00,5.6,-1.2,30.03,West,260,5.0,6.0,73,0.00,,OVC033,0.00,VWS V14.01,2013-01-13 07:19:00,
2013-01-13 01:24:00,5.8,-0.7,30.03,West,260,5.0,6.0,74,0.00,,OVC033,0.00,VWS V14.01,2013-01-13 07:24:00,
2013-01-13 01:29:00,5.6,-0.9,30.03,West,260,5.0,6.0,74,0.00,,OVC033,0.00,VWS V14.01,2013-01-13 07:29:00,
2013-01-13 01:30:00,5.8,-0.7,30.03,West,260,0.0,6.0,74,0.00,,,0.00,VWS V15.00,2013-01-13 07:30:00,
2013-01-13 01:34:00,5.8,-0.7,30.03,West,260,0.0,0.0,74,0.00,,OVC033,0.00,VWS V14.01,2013-01-13 07:34:00,
2013-01-13 01:39:00,5.8,-0.7,30.03,West,261,5.0,7.0,74,0.00,,OVC033,0.00,VWS V14.01,2013-01-13 07:39:00,
2013-01-13 01:44:00,5.8,-1.0,30.03,West,267,6.0,9.0,73,0.00,,OVC033,0.00,VWS V14.01,2013-01-13 07:44:00,
2013-01-13 01:45:00,5.6,-1.2,30.03,West,268,2.0,9.0,73,0.00,,,0.00,VWS V15.00,2013-01-13 07:45:00,
2013-01-13 01:49:00,5.6,-1.2,30.03,West,268,0.0,7.0,73,0.00,,OVC033,0.00,VWS V14.01,2013-01-13 07:49:00,
2013-01-13 01:54:00,5.6,-1.2,30.03,West,268,0.0,7.0,73,0.00,,OVC033,0.00,VWS V14.01,2013-01-13 07:54:00,
2013-01-13 01:59:00,5.6,-0.9,30.03,West,268,4.0,7.0,74,0.00,,OVC033,0.00,VWS V14.01,2013-01-13 07:59:00,
2013-01-13 02:00:00,5.6,-0.9,30.03,West,268,3.0,7.0,74,0.00,,,0.00,VWS V15.00,2013-01-13 08:00:00,
2013-01-13 02:04:00,5.6,-0.9,30.03,West,268,0.0,6.0,74,0.00,,OVC033,0.00,VWS V14.01,2013-01-13 08:04:00,
2013-01-13 02:09:00,5.6,-0.9,30.03,West,268,3.0,6.0,74,0.00,,OVC033,0.00,VWS V14.01,2013-01-13 08:09:00,
2013-01-13 02:15:00,5.6,-0.9,30.03,West,269,4.0,7.0,74,0.00,,OVC033,0.00,VWS V14.01,2013-01-13 08:15:00,
2013-01-13 02:20:00,5.6,-0.9,30.03,West,269,0.0,5.0,74,0.00,,OVC033,0.00,VWS V14.01,2013-01-13 08:20:00,
2013-01-13 02:25:00,5.6,-0.9,30.03,West,269,0.0,5.0,74,0.00,,OVC033,0.00,VWS V14.01,2013-01-13 08:25:00,
2013-01-13 02:30:00,5.8,-0.4,30.03,West,269,3.0,5.0,75,0.00,,OVC033,0.00,VWS V14.01,2013-01-13 08:30:00,
2013-01-13 02:35:00,5.8,-0.4,30.03,West,270,5.0,8.0,75,0.00,,OVC033,0.00,VWS V14.01,2013-01-13 08:35:00,
2013-01-13 02:40:00,5.8,-0.7,30.03,West,271,4.0,8.0,74,0.00,,OVC033,0.00,VWS V14.01,2013-01-13 08:40:00,
2013-01-13 02:45:00,5.8,-0.4,30.03,West,271,0.0,8.0,75,0.00,,OVC033,0.00,VWS V14.01,2013-01-13 08:45:00,
2013-01-13 02:50:00,5.8,-0.7,30.03,West,271,0.0,0.0,74,0.00,,OVC033,0.00,VWS V14.01,2013-01-13 08:50:00,
2013-01-13 02:55:00,5.8,-0.4,30.03,West,271,0.0,0.0,75,0.00,,OVC033,0.00,VWS V14.01,2013-01-13 08:55:00,
2013-01-13 03:00:00,5.8,-0.4,30.03,West,271,4.0,7.0,75,0.00,,OVC033,0.00,VWS V14.01,2013-01-13 09:00:00,
2013-01-13 03:05:00,5.8,-0.4,30.03,West,271,0.0,0.0,75,0.00,,OVC031,0.00,VWS V14.01,2013-01-13 09:05:00,
2013-01-13 03:10:00,5.8,-0.4,30.03,West,271,0.0,4.0,75,0.00,,OVC031,0.00,VWS V14.01,2013-01-13 09:10:00,
2013-01-13 03:15:00,6.0,-0.2,30.03,West,271,1.0,6.0,75,0.00,,OVC031,0.00,VWS V14.01,2013-01-13 09:15:00,
2013-01-13 03:20:00,6.0,-0.2,30.03,West,272,1.0,6.0,75,0.00,,OVC031,0.00,VWS V14.01,2013-01-13 09:20:00,
2013-01-13 03:25:00,6.0,-0.2,30.03,West,272,0.0,6.0,75,0.00,,OVC031,0.00,VWS V14.01,2013-01-13 09:25:00,
2013-01-13 03:30:00,6.0,-0.2,30.02,West,272,0.0,6.0,75,0.00,,OVC031,0.00,VWS V14.01,2013-01-13 09:30:00,
2013-01-13 03:35:00,5.8,-0.4,30.02,West,274,0.0,7.0,75,0.00,,OVC031,0.00,VWS V14.01,2013-01-13 09:35:00,
2013-01-13 03:40:00,5.8,-0.4,30.02,West,274,4.0,7.0,75,0.00,,OVC031,0.00,VWS V14.01,2013-01-13 09:40:00,
2013-01-13 03:45:00,5.8,-0.4,30.01,West,274,0.0,7.0,75,0.00,,OVC031,0.00,VWS V14.01,2013-01-13 09:45:00,
2013-01-13 03:50:00,5.8,-0.4,30.01,West,274,0.0,6.0,75,0.00,,OVC031,0.00,VWS V14.01,2013-01-13 09:50:00,
2013-01-13 03:55:00,5.8,-0.4,30.01,West,274,5.0,6.0,75,0.00,,OVC031,0.00,VWS V14.01,2013-01-13 09:55:00,
2013-01-13 04:00:00,5.6,-0.6,30.01,West,274,4.0,6.0,75,0.00,,OVC031,0.00,VWS V14.01,2013-01-13 10:00:00,
2013-01-13 04:05:00,5.6,-0.6,30.01,West,274,0.0,5.0,75,0.00,,BKN110,0.00,VWS V14.01,2013-01-13 10:05:00,
2013-01-13 04:10:00,5.6,-0.6,30.01,West,274,0.0,5.0,75,0.00,,BKN110,0.00,VWS V14.01,2013-01-13 10:10:00,
2013-01-13 04:15:00,5.4,-0.5,30.02,West,274,0.0,5.0,76,0.00,,BKN110,0.00,VWS V14.01,2013-01-13 10:15:00,
2013-01-13 04:20:00,5.4,-0.5,30.02,West,274,0.0,0.0,76,0.00,,BKN110,0.00,VWS V14.01,2013-01-13 10:20:00,
2013-01-13 04:25:00,5.2,-0.7,30.02,West,274,0.0,3.0,76,0.00,,BKN110,0.00,VWS V14.01,2013-01-13 10:25:00,
2013-01-13 04:30:00,5.2,-0.7,30.02,West,274,0.0,3.0,76,0.00,,BKN110,0.00,VWS V14.01,2013-01-13 10:30:00,
2013-01-13 04:35:00,5.2,-0.4,30.02,West,274,0.0,1.0,77,0.00,,BKN110,0.00,VWS V14.01,2013-01-13 10:35:00,
2013-01-13 04:40:00,5.0,-0.6,30.02,West,274,1.0,1.0,77,0.00,,BKN110,0.00,VWS V14.01,2013-01-13 10:40:00,
2013-01-13 04:45:00,5.0,-0.6,30.02,West,274,4.0,6.0,77,0.00,,BKN110,0.00,VWS V14.01,2013-01-13 10:45:00,
2013-01-13 04:50:00,5.0,-0.6,30.02,West,274,0.0,5.0,77,0.00,,BKN110,0.00,VWS V14.01,2013-01-13 10:50:00,
2013-01-13 04:55:00,5.0,-0.6,30.02,West,274,0.0,7.0,77,0.00,,BKN110,0.00,VWS V14.01,2013-01-13 10:55:00,
2013-01-13 05:00:00,5.0,-0.6,30.02,West,274,6.0,10.0,77,0.00,,,0.00,VWS V15.00,2013-01-13 11:00:00,
2013-01-13 05:01:00,5.0,-0.6,30.02,West,274,5.0,10.0,77,0.00,,SCT110,0.00,VWS V14.01,2013-01-13 11:01:00,
2013-01-13 05:06:00,5.0,-0.6,30.02,West,274,4.0,6.0,77,0.00,,SCT110,0.00,VWS V14.01,2013-01-13 11:06:00,
2013-01-13 05:11:00,5.0,-0.6,30.02,West,275,6.0,7.0,77,0.00,,SCT110,0.00,VWS V14.01,2013-01-13 11:11:00,
2013-01-13 05:15:00,4.8,-0.8,30.03,West,279,6.0,9.0,77,0.00,,,0.00,VWS V15.00,2013-01-13 11:15:00,
2013-01-13 05:16:00,4.8,-0.8,30.03,West,279,5.0,6.0,77,0.00,,SCT110,0.00,VWS V14.01,2013-01-13 11:16:00,
2013-01-13 05:21:00,4.8,-0.8,30.03,WNW,285,5.0,9.0,77,0.00,,SCT110,0.00,VWS V14.01,2013-01-13 11:21:00,
2013-01-13 05:26:00,4.7,-0.9,30.03,WNW,286,6.0,9.0,77,0.00,,SCT110,0.00,VWS V14.01,2013-01-13 11:26:00,
2013-01-13 05:30:00,4.7,-0.9,30.03,WNW,288,3.0,9.0,77,0.00,,,0.00,VWS V15.00,2013-01-13 11:30:00,
2013-01-13 05:31:00,4.7,-0.9,30.03,WNW,288,4.0,4.0,77,0.00,,SCT110,0.00,VWS V14.01,2013-01-13 11:31:00,
2013-01-13 05:36:00,4.5,-1.1,30.03,WNW,288,0.0,7.0,77,0.00,,SCT110,0.00,VWS V14.01,2013-01-13 11:36:00,
2013-01-13 05:41:00,4.3,-1.3,30.03,WNW,288,0.0,7.0,77,0.00,,BKN110,0.00,VWS V14.01,2013-01-13 11:41:00,
2013-01-13 05:45:00,4.1,-1.5,30.05,WNW,288,5.0,7.0,77,0.00,,,0.00,VWS V15.00,2013-01-13 11:45:00,
2013-01-13 05:46:00,4.1,-1.5,30.05,WNW,288,4.0,5.0,77,0.00,,BKN110,0.00,VWS V14.01,2013-01-13 11:46:00,
2013-01-13 05:51:00,4.1,-1.5,30.05,WNW,288,0.0,7.0,77,0.00,,BKN110,0.00,VWS V14.01,2013-01-13 11:51:00,
2013-01-13 05:56:00,4.1,-1.5,30.05,WNW,288,0.0,7.0,77,0.00,,BKN110,0.00,VWS V14.01,2013-01-13 11:56:00,
2013-01-13 06:00:00,4.1,-1.5,30.05,WNW,288,0.0,7.0,77,0.00,,,0.00,VWS V15.00,2013-01-13 12:00:00,
2013-01-13 06:01:00,4.1,-1.5,30.05,WNW,288,0.0,0.0,77,0.00,,BKN110,0.00,VWS V14.01,2013-01-13 12:01:00,
2013-01-13 06:06:00,3.9,-1.7,30.05,WNW,291,7.0,7.0,77,0.00,,BKN110,0.00,VWS V14.01,2013-01-13 12:06:00,
2013-01-13 06:11:00,3.9,-1.7,30.05,WNW,291,0.0,7.0,77,0.00,,BKN110,0.00,VWS V14.01,2013-01-13 12:11:00,
2013-01-13 06:15:00,3.7,-1.9,30.06,WNW,291,4.0,7.0,77,0.00,,,0.00,VWS V15.00,2013-01-13 12:15:00,
2013-01-13 06:16:00,3.7,-1.9,30.06,WNW,291,6.0,6.0,77,0.00,,BKN110,0.00,VWS V14.01,2013-01-13 12:16:00,
2013-01-13 06:21:00,3.5,-2.1,30.06,WNW,291,5.0,7.0,77,0.00,,BKN110,0.00,VWS V14.01,2013-01-13 12:21:00,
2013-01-13 06:26:00,3.5,-2.1,30.06,WNW,291,0.0,7.0,77,0.00,,BKN110,0.00,VWS V14.01,2013-01-13 12:26:00,
2013-01-13 06:30:00,3.4,-2.2,30.06,WNW,291,4.0,7.0,77,0.00,,,0.00,VWS V15.00,2013-01-13 12:30:00,
2013-01-13 06:31:00,3.4,-2.2,30.06,WNW,291,1.0,5.0,77,0.00,,BKN110,0.00,VWS V14.01,2013-01-13 12:31:00,
2013-01-13 06:36:00,3.2,-2.6,30.06,WNW,291,0.0,5.0,76,0.00,,BKN110,0.00,VWS V14.01,2013-01-13 12:36:00,
2013-01-13 06:41:00,3.0,-2.8,30.06,WNW,291,0.0,5.0,76,0.00,,BKN110,0.00,VWS V14.01,2013-01-13 12:41:00,
2013-01-13 06:45:00,3.0,-2.6,30.07,WNW,291,0.0,5.0,77,0.00,,,0.00,VWS V15.00,2013-01-13 12:45:00,
2013-01-13 06:46:00,3.0,-2.6,30.07,WNW,291,0.0,0.0,77,0.00,,BKN110,0.00,VWS V14.01,2013-01-13 12:46:00,
2013-01-13 06:51:00,2.8,-3.0,30.07,WNW,291,0.0,5.0,76,0.00,,BKN110,0.00,VWS V14.01,2013-01-13 12:51:00,
2013-01-13 06:56:00,2.6,-3.2,30.07,WNW,291,0.0,5.0,76,0.00,,BKN110,0.00,VWS V14.01,2013-01-13 12:56:00,
2013-01-13 07:00:00,2.6,-3.0,30.07,WNW,291,0.0,5.0,77,0.00,,,0.00,VWS V15.00,2013-01-13 13:00:00,
2013-01-13 07:01:00,2.6,-3.0,30.07,WNW,291,0.0,4.0,77,0.00,,BKN110,0.00,VWS V14.01,2013-01-13 13:01:00,
2013-01-13 07:06:00,2.4,-3.2,30.07,WNW,291,0.0,4.0,77,0.00,,BKN110,0.00,VWS V14.01,2013-01-13 13:06:00,
2013-01-13 07:11:00,2.2,-3.3,30.07,WNW,291,0.0,5.0,77,0.00,,BKN110,0.00,VWS V14.01,2013-01-13 13:11:00,
2013-01-13 07:15:00,2.2,-3.3,30.08,WNW,291,0.0,5.0,77,0.00,,,0.00,VWS V15.00,2013-01-13 13:15:00,
2013-01-13 07:16:00,2.2,-3.3,30.08,WNW,291,0.0,0.0,77,0.00,,BKN110,0.00,VWS V14.01,2013-01-13 13:16:00,
2013-01-13 07:21:00,2.0,-3.5,30.08,WNW,291,0.0,6.0,77,0.00,,BKN110,0.00,VWS V14.01,2013-01-13 13:21:00,
2013-01-13 07:26:00,2.0,-3.5,30.08,WNW,291,0.0,6.0,77,0.00,,BKN110,0.00,VWS V14.01,2013-01-13 13:26:00,
2013-01-13 07:30:00,2.0,-3.5,30.09,WNW,291,0.0,6.0,77,0.00,,,0.00,VWS V15.00,2013-01-13 13:30:00,
2013-01-13 07:31:00,2.0,-3.5,30.09,WNW,291,0.0,0.0,77,0.00,,BKN110,0.00,VWS V14.01,2013-01-13 13:31:00,
2013-01-13 07:37:00,1.8,-3.5,30.09,WNW,291,6.0,7.0,78,0.00,,BKN110,0.00,VWS V14.01,2013-01-13 13:37:00,
2013-01-13 07:42:00,1.8,-3.5,30.09,WNW,291,0.0,7.0,78,0.00,,BKN110,0.00,VWS V14.01,2013-01-13 13:42:00,
2013-01-13 07:45:00,1.8,-3.5,30.10,WNW,291,0.0,7.0,78,0.00,,,0.00,VWS V15.00,2013-01-13 13:45:00,
2013-01-13 07:47:00,1.8,-3.5,30.10,WNW,291,0.0,0.0,78,0.00,,BKN110,0.00,VWS V14.01,2013-01-13 13:47:00,
2013-01-13 07:52:00,1.8,-3.5,30.10,WNW,291,5.0,6.0,78,0.00,,SCT110,0.00,VWS V14.01,2013-01-13 13:52:00,
2013-01-13 07:57:00,1.8,-3.5,30.10,WNW,291,0.0,6.0,78,0.00,,SCT110,0.00,VWS V14.01,2013-01-13 13:57:00,
2013-01-13 08:00:00,1.7,-3.6,30.12,WNW,291,0.0,6.0,78,0.00,,,0.00,VWS V15.00,2013-01-13 14:00:00,
2013-01-13 08:02:00,1.7,-3.6,30.12,WNW,291,0.0,0.0,78,0.00,,SCT110,0.00,VWS V14.01,2013-01-13 14:02:00,
2013-01-13 08:07:00,1.7,-3.6,30.12,WNW,291,0.0,0.0,78,0.00,,SCT110,0.00,VWS V14.01,2013-01-13 14:07:00,
2013-01-13 08:12:00,1.7,-3.6,30.12,WNW,291,0.0,5.0,78,0.00,,SCT110,0.00,VWS V14.01,2013-01-13 14:12:00,
2013-01-13 08:15:00,1.7,-3.6,30.12,WNW,291,0.0,5.0,78,0.00,,,0.00,VWS V15.00,2013-01-13 14:15:00,
2013-01-13 08:17:00,1.7,-3.6,30.12,WNW,291,0.0,0.0,78,0.00,,SCT110,0.00,VWS V14.01,2013-01-13 14:17:00,
2013-01-13 08:22:00,1.7,-3.6,30.12,WNW,291,0.0,0.0,78,0.00,,SCT110,0.00,VWS V14.01,2013-01-13 14:22:00,
2013-01-13 08:27:00,1.7,-3.6,30.12,WNW,291,0.0,0.0,78,0.00,,SCT110,0.00,VWS V14.01,2013-01-13 14:27:00,
2013-01-13 08:30:00,1.8,-3.5,30.13,WNW,291,0.0,0.0,78,0.00,,,0.00,VWS V15.00,2013-01-13 14:30:00,
2013-01-13 08:32:00,1.8,-3.5,30.13,WNW,291,0.0,0.0,78,0.00,,SCT100,0.00,VWS V14.01,2013-01-13 14:32:00,
2013-01-13 08:37:00,1.8,-3.5,30.13,WNW,291,0.0,2.0,78,0.00,,SCT100,0.00,VWS V14.01,2013-01-13 14:37:00,
2013-01-13 08:42:00,2.0,-3.3,30.13,WNW,291,0.0,2.0,78,0.00,,SCT100,0.00,VWS V14.01,2013-01-13 14:42:00,
2013-01-13 08:45:00,2.2,-3.1,30.14,WNW,291,0.0,2.0,78,0.00,,,0.00,VWS V15.00,2013-01-13 14:45:00,
2013-01-13 08:47:00,2.4,-2.9,30.14,WNW,291,0.0,2.0,78,0.00,,SCT100,0.00,VWS V14.01,2013-01-13 14:47:00,
2013-01-13 08:52:00,2.8,-2.5,30.14,WNW,291,5.0,5.0,78,0.00,,SCT100,0.00,VWS V14.01,2013-01-13 14:52:00,
2013-01-13 08:57:00,3.2,-2.1,30.14,WNW,291,0.0,5.0,78,0.00,,SCT100,0.00,VWS V14.01,2013-01-13 14:57:00,
2013-01-13 09:00:00,3.5,-2.1,30.14,WNW,291,1.0,5.0,77,0.00,,,0.00,VWS V15.00,2013-01-13 15:00:00,
2013-01-13 09:02:00,3.7,-1.9,30.14,WNW,291,0.0,7.0,77,0.00,,OVC070,0.00,VWS V14.01,2013-01-13 15:02:00,
2013-01-13 09:07:00,3.9,-2.0,30.14,WNW,291,5.0,10.0,76,0.00,,OVC070,0.00,VWS V14.01,2013-01-13 15:07:00,
2013-01-13 09:12:00,4.1,-2.0,30.14,WNW,292,0.0,10.0,75,0.00,,OVC070,0.00,VWS V14.01,2013-01-13 15:12:00,
2013-01-13 09:15:00,4.3,-1.9,30.14,WNW,292,4.0,10.0,75,0.00,,,0.00,VWS V15.00,2013-01-13 15:15:00,
2013-01-13 09:18:00,4.3,-1.9,30.14,WNW,292,1.0,4.0,75,0.00,,OVC070,0.00,VWS V14.01,2013-01-13 15:18:00,
2013-01-13 09:23:00,4.5,-1.7,30.14,WNW,292,0.0,7.0,75,0.00,,OVC070,0.00,VWS V14.01,2013-01-13 15:23:00,
2013-01-13 09:28:00,4.7,-1.8,30.14,WNW,292,0.0,7.0,74,0.00,,OVC070,0.00,VWS V14.01,2013-01-13 15:28:00,
2013-01-13 09:30:00,4.8,-1.6,30.13,WNW,294,4.0,9.0,74,0.00,,,0.00,VWS V15.00,2013-01-13 15:30:00,
2013-01-13 09:33:00,4.8,-1.6,30.13,WNW,295,4.0,7.0,74,0.00,,OVC070,0.00,VWS V14.01,2013-01-13 15:33:00,
2013-01-13 09:38:00,5.0,-1.5,30.13,WNW,300,2.0,9.0,74,0.00,,OVC070,0.00,VWS V14.01,2013-01-13 15:38:00,
2013-01-13 09:43:00,5.2,-1.5,30.13,NW,312,5.0,9.0,73,0.00,,OVC070,0.00,VWS V14.01,2013-01-13 15:43:00,
2013-01-13 09:45:00,5.2,-1.5,30.13,NW,312,6.0,9.0,73,0.00,,,0.00,VWS V15.00,2013-01-13 15:45:00,
2013-01-13 09:48:00,5.2,-1.8,30.13,NW,311,0.0,7.0,72,0.00,,OVC070,0.00,VWS V14.01,2013-01-13 15:48:00,
2013-01-13 09:53:00,5.4,-1.6,30.13,NW,312,6.0,9.0,72,0.00,,OVC070,0.00,VWS V14.01,2013-01-13 15:53:00,
2013-01-13 09:58:00,5.2,-1.8,30.13,NW,311,4.0,9.0,72,0.00,,OVC070,0.00,VWS V14.01,2013-01-13 15:58:00,
2013-01-13 10:00:00,5.0,-2.0,30.13,NW,310,5.0,9.0,72,0.00,,,0.00,VWS V15.00,2013-01-13 16:00:00,
2013-01-13 10:03:00,5.0,-2.0,30.13,NW,305,10.0,10.0,72,0.00,,OVC080,0.00,VWS V14.01,2013-01-13 16:03:00,
2013-01-13 10:08:00,5.0,-2.0,30.13,WNW,303,7.0,10.0,72,0.00,,OVC080,0.00,VWS V14.01,2013-01-13 16:08:00,
2013-01-13 10:13:00,5.2,-1.8,30.13,NW,305,0.0,10.0,72,0.00,,OVC080,0.00,VWS V14.01,2013-01-13 16:13:00,
2013-01-13 10:15:00,5.2,-1.8,30.13,NW,305,9.0,10.0,72,0.00,,,0.00,VWS V15.00,2013-01-13 16:15:00,
2013-01-13 10:18:00,5.2,-2.1,30.13,NW,304,4.0,9.0,71,0.00,,OVC080,0.00,VWS V14.01,2013-01-13 16:18:00,
2013-01-13 10:23:00,5.2,-2.4,30.13,WNW,296,8.0,10.0,70,0.00,,OVC080,0.00,VWS V14.01,2013-01-13 16:23:00,
2013-01-13 10:28:00,5.2,-2.1,30.13,WNW,292,4.0,10.0,71,0.00,,OVC080,0.00,VWS V14.01,2013-01-13 16:28:00,
2013-01-13 10:30:00,5.2,-2.1,30.13,WNW,292,6.0,10.0,71,0.00,,,0.00,VWS V15.00,2013-01-13 16:30:00,
2013-01-13 10:33:00,5.2,-2.1,30.13,WNW,292,0.0,9.0,71,0.00,,OVC080,0.00,VWS V14.01,2013-01-13 16:33:00,
2013-01-13 10:38:00,5.2,-2.1,30.13,WNW,292,1.0,9.0,71,0.00,,OVC080,0.00,VWS V14.01,2013-01-13 16:38:00,
2013-01-13 10:43:00,5.4,-1.9,30.13,WNW,293,6.0,10.0,71,0.00,,OVC100,0.00,VWS V14.01,2013-01-13 16:43:00,
2013-01-13 10:45:00,5.6,-1.8,30.12,WNW,292,6.0,10.0,71,0.00,,,0.00,VWS V15.00,2013-01-13 16:45:00,
2013-01-13 10:48:00,5.6,-1.8,30.12,WNW,296,5.0,7.0,71,0.00,,OVC100,0.00,VWS V14.01,2013-01-13 16:48:00,
2013-01-13 10:53:00,5.6,-2.0,30.12,WNW,296,8.0,11.0,70,0.00,,OVC100,0.00,VWS V14.01,2013-01-13 16:53:00,
2013-01-13 10:58:00,5.6,-2.0,30.12,NW,313,8.0,11.0,70,0.00,,OVC100,0.00,VWS V14.01,2013-01-13 16:58:00,
2013-01-13 11:00:00,5.6,-2.0,30.10,NW,312,8.0,11.0,70,0.00,,,0.00,VWS V15.00,2013-01-13 17:00:00,
2013-01-13 11:03:00,5.8,-1.9,30.10,NW,310,5.0,10.0,70,0.00,,OVC050,0.00,VWS V14.01,2013-01-13 17:03:00,
2013-01-13 11:08:00,5.8,-1.9,30.10,WNW,296,5.0,10.0,70,0.00,,OVC050,0.00,VWS V14.01,2013-01-13 17:08:00,
2013-01-13 11:13:00,5.8,-1.9,30.10,WNW,297,0.0,10.0,70,0.00,,OVC050,0.00,VWS V14.01,2013-01-13 17:13:00,
2013-01-13 11:15:00,6.0,-1.4,30.10,WNW,296,0.0,10.0,71,0.00,,,0.00,VWS V15.00,2013-01-13 17:15:00,
2013-01-13 11:18:00,6.0,-1.7,30.10,WNW,297,6.0,8.0,70,0.00,,OVC050,0.00,VWS V14.01,2013-01-13 17:18:00,
2013-01-13 11:24:00,5.8,-1.9,30.10,WNW,300,0.0,12.0,70,0.00,,OVC050,0.00,VWS V14.01,2013-01-13 17:24:00,
2013-01-13 11:29:00,6.0,-1.4,30.10,WNW,295,6.0,12.0,71,0.00,,OVC050,0.00,VWS V14.01,2013-01-13 17:29:00,
2013-01-13 11:30:00,6.0,-1.7,30.09,WNW,292,5.0,12.0,70,0.00,,,0.00,VWS V15.00,2013-01-13 17:30:00,
2013-01-13 11:34:00,6.0,-1.4,30.09,WNW,293,10.0,10.0,71,0.00,,OVC050,0.00,VWS V14.01,2013-01-13 17:34:00,
2013-01-13 11:39:00,6.5,-0.9,30.09,NW,324,7.0,10.0,71,0.00,,OVC050,0.00,VWS V14.01,2013-01-13 17:39:00,
2013-01-13 11:44:00,6.5,-1.2,30.09,NW,310,0.0,10.0,70,0.00,,OVC047,0.00,VWS V14.01,2013-01-13 17:44:00,
2013-01-13 11:45:00,6.9,-0.5,30.08,NW,315,3.0,10.0,71,0.00,,,0.00,VWS V15.00,2013-01-13 17:45:00,
2013-01-13 11:49:00,7.0,-0.7,30.08,WNW,303,6.0,11.0,70,0.00,,OVC047,0.00,VWS V14.01,2013-01-13 17:49:00,
2013-01-13 11:54:00,7.2,-0.8,30.08,NW,326,7.0,11.0,69,0.00,,OVC047,0.00,VWS V14.01,2013-01-13 17:54:00,
2013-01-13 11:59:00,7.0,-1.0,30.08,NNW,333,0.0,11.0,69,0.00,,OVC047,0.00,VWS V14.01,2013-01-13 17:59:00,
2013-01-13 12:00:00,7.2,-0.8,30.07,NW,322,0.0,11.0,69,0.00,,,0.00,VWS V15.00,2013-01-13 18:00:00,
2013-01-13 12:04:00,7.4,-0.6,30.07,WNW,300,0.0,11.0,69,0.00,,OVC038,0.00,VWS V14.01,2013-01-13 18:04:00,
2013-01-13 12:09:00,7.4,-0.6,30.07,WNW,300,6.0,11.0,69,0.00,,OVC038,0.00,VWS V14.01,2013-01-13 18:09:00,
2013-01-13 12:14:00,7.6,-0.4,30.07,WNW,302,10.0,12.0,69,0.00,,OVC038,0.00,VWS V14.01,2013-01-13 18:14:00,
2013-01-13 12:15:00,7.6,-0.4,30.07,WNW,302,4.0,12.0,69,0.00,,,0.00,VWS V15.00,2013-01-13 18:15:00,
2013-01-13 12:19:00,7.6,-0.7,30.07,NW,314,0.0,11.0,68,0.00,,OVC038,0.00,VWS V14.01,2013-01-13 18:19:00,
2013-01-13 12:24:00,7.4,-0.6,30.07,NW,306,2.0,11.0,69,0.00,,OVC038,0.00,VWS V14.01,2013-01-13 18:24:00,
2013-01-13 12:29:00,7.0,-1.3,30.07,WNW,293,0.0,13.0,68,0.00,,OVC038,0.00,VWS V14.01,2013-01-13 18:29:00,
2013-01-13 12:30:00,7.0,-1.0,30.07,WNW,292,6.0,13.0,69,0.00,,,0.00,VWS V15.00,2013-01-13 18:30:00,
2013-01-13 12:34:00,7.4,-0.3,30.07,WNW,291,8.0,10.0,70,0.00,,OVC033,0.00,VWS V14.01,2013-01-13 18:34:00,
2013-01-13 12:39:00,7.4,-0.6,30.07,WNW,296,5.0,10.0,69,0.00,,OVC033,0.00,VWS V14.01,2013-01-13 18:39:00,
2013-01-13 12:44:00,7.4,-0.6,30.07,NW,318,0.0,10.0,69,0.00,,OVC033,0.00,VWS V14.01,2013-01-13 18:44:00,
2013-01-13 12:45:00,7.4,-0.6,30.07,NW,318,0.0,10.0,69,0.00,,,0.00,VWS V15.00,2013-01-13 18:45:00,
2013-01-13 12:49:00,7.7,0.0,30.07,WNW,292,9.0,9.0,70,0.00,,OVC033,0.00,VWS V14.01,2013-01-13 18:49:00,
2013-01-13 12:54:00,7.7,-0.3,30.07,WNW,296,0.0,11.0,69,0.00,,OVC033,0.00,VWS V14.01,2013-01-13 18:54:00,
2013-01-13 12:59:00,7.9,-0.1,30.07,WNW,293,4.0,11.0,69,0.00,,OVC033,0.00,VWS V14.01,2013-01-13 18:59:00,
2013-01-13 13:00:00,7.9,-0.1,30.07,WNW,293,9.0,11.0,69,0.00,,,0.00,VWS V15.00,2013-01-13 19:00:00,
2013-01-13 13:04:00,7.7,-0.6,30.07,WNW,291,9.0,12.0,68,0.00,,OVC033,0.00,VWS V14.01,2013-01-13 19:04:00,
2013-01-13 13:09:00,7.4,-0.9,30.07,WNW,293,0.0,12.0,68,0.00,,OVC033,0.00,VWS V14.01,2013-01-13 19:09:00,
2013-01-13 13:14:00,7.2,-0.8,30.07,WNW,292,6.0,12.0,69,0.00,,OVC033,0.00,VWS V14.01,2013-01-13 19:14:00,
2013-01-13 13:15:00,7.2,-0.8,30.07,WNW,292,7.0,12.0,69,0.00,,,0.00,VWS V15.00,2013-01-13 19:15:00,
2013-01-13 13:19:00,7.2,-0.8,30.07,WNW,294,9.0,12.0,69,0.00,,OVC033,0.00,VWS V14.01,2013-01-13 19:19:00,
2013-01-13 13:24:00,7.2,-0.8,30.07,WNW,292,6.0,12.0,69,0.00,,OVC033,0.00,VWS V14.01,2013-01-13 19:24:00,
2013-01-13 13:29:00,7.2,-0.5,30.07,WNW,292,5.0,12.0,70,0.00,,OVC033,0.00,VWS V14.01,2013-01-13 19:29:00,
2013-01-13 13:30:00,7.2,-0.5,30.08,WNW,286,10.0,12.0,70,0.00,,,0.00,VWS V15.00,2013-01-13 19:30:00,
2013-01-13 13:34:00,7.4,-0.6,30.08,WNW,292,11.0,11.0,69,0.00,,OVC033,0.00,VWS V14.01,2013-01-13 19:34:00,
2013-01-13 13:39:00,7.4,-0.6,30.08,WNW,292,5.0,11.0,69,0.00,,OVC033,0.00,VWS V14.01,2013-01-13 19:39:00,
2013-01-13 13:45:00,7.6,-0.1,30.08,WNW,292,1.0,11.0,70,0.00,,OVC035,0.00,VWS V14.01,2013-01-13 19:45:00,
2013-01-13 13:50:00,7.4,-0.9,30.08,WNW,287,6.0,11.0,68,0.00,,OVC035,0.00,VWS V14.01,2013-01-13 19:50:00,
2013-01-13 13:55:00,7.4,-0.6,30.08,West,279,7.0,11.0,69,0.00,,OVC046,0.00,VWS V14.01,2013-01-13 19:55:00,
2013-01-13 14:00:00,7.4,-0.6,30.08,WNW,288,4.0,11.0,69,0.00,,OVC046,0.00,VWS V14.01,2013-01-13 20:00:00,
2013-01-13 14:05:00,7.2,-1.1,30.08,WNW,285,7.0,11.0,68,0.00,,OVC046,0.00,VWS V14.01,2013-01-13 20:05:00,
2013-01-13 14:10:00,6.9,-1.1,30.08,WNW,283,6.0,11.0,69,0.00,,OVC046,0.00,VWS V14.01,2013-01-13 20:10:00,
2013-01-13 14:15:00,6.9,-1.1,30.08,WNW,286,0.0,7.0,69,0.00,,OVC046,0.00,VWS V14.01,2013-01-13 20:15:00,
2013-01-13 14:20:00,7.4,-0.3,30.08,WNW,286,3.0,5.0,70,0.00,,OVC046,0.00,VWS V14.01,2013-01-13 20:20:00,
2013-01-13 14:25:00,7.4,-0.6,30.08,West,281,6.0,10.0,69,0.00,,OVC046,0.00,VWS V14.01,2013-01-13 20:25:00,
2013-01-13 14:30:00,7.2,-0.8,30.09,West,264,6.0,12.0,69,0.00,,OVC046,0.00,VWS V14.01,2013-01-13 20:30:00,
2013-01-13 14:35:00,7.0,-1.0,30.09,West,259,0.0,9.0,69,0.00,,OVC046,0.00,VWS V14.01,2013-01-13 20:35:00,
2013-01-13 14:40:00,7.2,-0.5,30.09,West,259,0.0,9.0,70,0.00,,OVC046,0.00,VWS V14.01,2013-01-13 20:40:00,
2013-01-13 14:45:00,7.2,-0.8,30.10,WSW,250,6.0,10.0,69,0.00,,OVC046,0.00,VWS V14.01,2013-01-13 20:45:00,
2013-01-13 14:50:00,7.0,-0.7,30.10,WSW,239,8.0,12.0,70,0.00,,OVC046,0.00,VWS V14.01,2013-01-13 20:50:00,
2013-01-13 14:55:00,6.9,-0.5,30.10,WSW,238,7.0,12.0,71,0.00,,OVC046,0.00,VWS V14.01,2013-01-13 20:55:00,
2013-01-13 15:00:00,6.7,-0.7,30.10,West,260,7.0,12.0,71,0.00,,OVC024,0.00,VWS V14.01,2013-01-13 21:00:00,
2013-01-13 15:06:00,6.9,-0.5,30.10,WSW,255,10.0,12.0,71,0.00,,OVC024,0.00,VWS V14.01,2013-01-13 21:06:00,
2013-01-13 15:11:00,6.9,-0.2,30.10,WSW,253,6.0,12.0,72,0.00,,OVC024,0.00,VWS V14.01,2013-01-13 21:11:00,
2013-01-13 15:15:00,6.9,0.1,30.11,WSW,254,7.0,12.0,73,0.00,,,0.00,VWS V15.00,2013-01-13 21:15:00,
2013-01-13 15:16:00,6.9,0.1,30.11,WSW,254,7.0,12.0,73,0.00,,OVC024,0.00,VWS V14.01,2013-01-13 21:16:00,
2013-01-13 15:21:00,7.0,0.2,30.11,West,264,9.0,11.0,73,0.00,,OVC024,0.00,VWS V14.01,2013-01-13 21:21:00,
2013-01-13 15:26:00,6.9,-0.2,30.11,WSW,258,7.0,11.0,72,0.00,,OVC024,0.00,VWS V14.01,2013-01-13 21:26:00,
2013-01-13 15:30:00,6.9,0.1,30.12,WSW,256,2.0,11.0,73,0.00,,,0.00,VWS V15.00,2013-01-13 21:30:00,
2013-01-13 15:31:00,6.9,0.1,30.12,WSW,256,2.0,11.0,73,0.00,,OVC024,0.00,VWS V14.01,2013-01-13 21:31:00,
2013-01-13 15:36:00,6.9,0.4,30.12,West,272,7.0,10.0,74,0.00,,OVC024,0.00,VWS V14.01,2013-01-13 21:36:00,
2013-01-13 15:41:00,7.0,0.5,30.12,West,268,6.0,10.0,74,0.00,,OVC039,0.00,VWS V14.01,2013-01-13 21:41:00,
2013-01-13 15:45:00,6.9,0.4,30.12,West,264,0.0,10.0,74,0.00,,,0.00,VWS V15.00,2013-01-13 21:45:00,
2013-01-13 15:46:00,6.9,0.4,30.12,West,264,0.0,0.0,74,0.00,,OVC039,0.00,VWS V14.01,2013-01-13 21:46:00,
2013-01-13 15:51:00,7.0,0.8,30.12,West,264,0.0,4.0,75,0.00,,OVC039,0.00,VWS V14.01,2013-01-13 21:51:00,
2013-01-13 15:56:00,7.0,0.5,30.12,West,259,0.0,9.0,74,0.00,,OVC039,0.00,VWS V14.01,2013-01-13 21:56:00,
2013-01-13 16:00:00,6.7,-0.1,30.12,WSW,246,8.0,13.0,73,0.00,,,0.00,VWS V15.00,2013-01-13 22:00:00,
2013-01-13 16:01:00,6.7,-0.1,30.12,WSW,253,10.0,11.0,73,0.00,,OVC041,0.00,VWS V14.01,2013-01-13 22:01:00,
2013-01-13 16:06:00,6.3,-0.5,30.12,WSW,254,10.0,13.0,73,0.00,,OVC041,0.00,VWS V14.01,2013-01-13 22:06:00,
2013-01-13 16:11:00,6.1,-0.4,30.12,WSW,245,6.0,13.0,74,0.00,,OVC041,0.00,VWS V14.01,2013-01-13 22:11:00,
2013-01-13 16:15:00,6.1,-0.4,30.13,WSW,251,6.0,11.0,74,0.00,,,0.00,VWS V15.00,2013-01-13 22:15:00,
2013-01-13 16:16:00,6.1,-0.4,30.13,WSW,251,7.0,7.0,74,0.00,,OVC041,0.00,VWS V14.01,2013-01-13 22:16:00,
2013-01-13 16:21:00,6.1,-0.1,30.13,WSW,248,6.0,12.0,75,0.00,,OVC041,0.00,VWS V14.01,2013-01-13 22:21:00,
2013-01-13 16:27:00,6.0,-0.2,30.13,WSW,245,9.0,12.0,75,0.00,,OVC041,0.00,VWS V14.01,2013-01-13 22:27:00,
2013-01-13 16:30:00,6.0,-0.2,30.13,WSW,246,3.0,12.0,75,0.00,,,0.00,VWS V15.00,2013-01-13 22:30:00,
2013-01-13 16:32:00,6.0,-0.2,30.13,WSW,247,5.0,5.0,75,0.00,,OVC041,0.00,VWS V14.01,2013-01-13 22:32:00,
2013-01-13 16:37:00,6.0,-0.2,30.13,WSW,256,11.0,12.0,75,0.00,,OVC041,0.00,VWS V14.01,2013-01-13 22:37:00,
2013-01-13 16:42:00,5.8,-0.4,30.13,WSW,254,5.0,12.0,75,0.00,,OVC055,0.00,VWS V14.01,2013-01-13 22:42:00,
2013-01-13 16:45:00,5.8,-0.4,30.14,WSW,251,7.0,12.0,75,0.00,,,0.00,VWS V15.00,2013-01-13 22:45:00,
2013-01-13 16:47:00,5.8,-0.4,30.14,WSW,251,7.0,10.0,75,0.00,,OVC055,0.00,VWS V14.01,2013-01-13 22:47:00,
2013-01-13 16:52:00,5.8,-0.4,30.14,WSW,243,10.0,11.0,75,0.00,,OVC055,0.00,VWS V14.01,2013-01-13 22:52:00,
2013-01-13 16:57:00,5.8,-0.4,30.14,WSW,248,7.0,11.0,75,0.00,,OVC055,0.00,VWS V14.01,2013-01-13 22:57:00,
2013-01-13 17:00:00,5.8,-0.4,30.14,WSW,250,10.0,11.0,75,0.00,,,0.00,VWS V15.00,2013-01-13 23:00:00,
2013-01-13 17:02:00,5.8,-0.4,30.14,WSW,248,13.0,13.0,75,0.00,,OVC080,0.00,VWS V14.01,2013-01-13 23:02:00,
2013-01-13 17:07:00,5.6,-0.6,30.14,WSW,242,6.0,13.0,75,0.00,,OVC080,0.00,VWS V14.01,2013-01-13 23:07:00,
2013-01-13 17:12:00,5.6,-0.6,30.14,WSW,246,6.0,13.0,75,0.00,,OVC080,0.00,VWS V14.01,2013-01-13 23:12:00,
2013-01-13 17:15:00,5.6,-0.6,30.14,West,260,6.0,13.0,75,0.00,,,0.00,VWS V15.00,2013-01-13 23:15:00,
2013-01-13 17:17:00,5.6,-0.6,30.14,West,260,5.0,7.0,75,0.00,,OVC080,0.00,VWS V14.01,2013-01-13 23:17:00,
2013-01-13 17:22:00,5.6,-0.6,30.14,West,260,9.0,11.0,75,0.00,,OVC080,0.00,VWS V14.01,2013-01-13 23:22:00,
2013-01-13 17:27:00,5.6,-0.6,30.14,WSW,254,6.0,11.0,75,0.00,,OVC080,0.00,VWS V14.01,2013-01-13 23:27:00,
2013-01-13 17:30:00,5.4,-1.1,30.15,West,262,6.0,11.0,74,0.00,,,0.00,VWS V15.00,2013-01-13 23:30:00,
2013-01-13 17:32:00,5.4,-1.1,30.15,West,261,4.0,7.0,74,0.00,,OVC080,0.00,VWS V14.01,2013-01-13 23:32:00,
2013-01-13 17:37:00,5.0,-1.5,30.15,West,262,9.0,10.0,74,0.00,,OVC080,0.00,VWS V14.01,2013-01-13 23:37:00,
2013-01-13 17:42:00,4.8,-1.9,30.15,West,265,6.0,12.0,73,0.00,,BKN110,0.00,VWS V14.01,2013-01-13 23:42:00,
2013-01-13 17:45:00,4.8,-1.9,30.15,West,264,5.0,12.0,73,0.00,,,0.00,VWS V15.00,2013-01-13 23:45:00,
2013-01-13 17:47:00,4.7,-2.0,30.15,WSW,258,5.0,12.0,73,0.00,,BKN110,0.00,VWS V14.01,2013-01-13 23:47:00,
2013-01-13 17:52:00,4.7,-2.0,30.15,West,262,4.0,12.0,73,0.00,,BKN110,0.00,VWS V14.01,2013-01-13 23:52:00,
2013-01-13 17:57:00,4.5,-2.2,30.15,West,260,9.0,12.0,73,0.00,,BKN110,0.00,VWS V14.01,2013-01-13 23:57:00,
2013-01-13 18:00:00,4.5,-2.5,30.15,West,265,6.0,12.0,72,0.00,,,0.00,VWS V15.00,2013-01-14 00:00:00,
2013-01-13 18:02:00,4.3,-2.7,30.15,West,260,5.0,10.0,72,0.00,,CLR,0.00,VWS V14.01,2013-01-14 00:02:00,
2013-01-13 18:07:00,4.3,-2.7,30.15,West,262,6.0,10.0,72,0.00,,CLR,0.00,VWS V14.01,2013-01-14 00:07:00,
2013-01-13 18:12:00,4.1,-2.9,30.15,West,262,5.0,10.0,72,0.00,,SCT120,0.00,VWS V14.01,2013-01-14 00:12:00,
2013-01-13 18:15:00,4.1,-2.9,30.16,West,261,4.0,10.0,72,0.00,,,0.00,VWS V15.00,2013-01-14 00:15:00,
2013-01-13 18:17:00,4.1,-2.6,30.16,West,261,7.0,10.0,73,0.00,,SCT120,0.00,VWS V14.01,2013-01-14 00:17:00,
2013-01-13 18:22:00,3.9,-2.8,30.16,West,262,5.0,10.0,73,0.00,,SCT120,0.00,VWS V14.01,2013-01-14 00:22:00,
2013-01-13 18:27:00,3.9,-2.8,30.16,West,262,7.0,10.0,73,0.00,,SCT120,0.00,VWS V14.01,2013-01-14 00:27:00,
2013-01-13 18:30:00,3.9,-2.8,30.16,West,260,6.0,10.0,73,0.00,,,0.00,VWS V15.00,2013-01-14 00:30:00,
2013-01-13 18:32:00,3.9,-2.8,30.16,West,263,7.0,10.0,73,0.00,,SCT120,0.00,VWS V14.01,2013-01-14 00:32:00,
2013-01-13 18:38:00,3.9,-2.8,30.16,West,260,6.0,12.0,73,0.00,,SCT120,0.00,VWS V14.01,2013-01-14 00:38:00,
2013-01-13 18:43:00,3.9,-2.8,30.16,West,260,6.0,12.0,73,0.00,,BKN110,0.00,VWS V14.01,2013-01-14 00:43:00,
2013-01-13 18:45:00,3.7,-3.0,30.16,West,260,6.0,12.0,73,0.00,,,0.00,VWS V15.00,2013-01-14 00:45:00,
2013-01-13 18:48:00,3.7,-3.0,30.16,West,260,5.0,7.0,73,0.00,,BKN110,0.00,VWS V14.01,2013-01-14 00:48:00,
2013-01-13 18:53:00,3.7,-3.0,30.16,West,260,0.0,9.0,73,0.00,,BKN110,0.00,VWS V14.01,2013-01-14 00:53:00,
2013-01-13 18:58:00,3.5,-3.2,30.16,West,261,6.0,10.0,73,0.00,,BKN110,0.00,VWS V14.01,2013-01-14 00:58:00,
2013-01-13 19:00:00,3.5,-3.2,30.16,West,260,5.0,10.0,73,0.00,,,0.00,VWS V15.00,2013-01-14 01:00:00,
2013-01-13 19:03:00,3.4,-3.3,30.16,West,261,5.0,9.0,73,0.00,,BKN120,0.00,VWS V14.01,2013-01-14 01:03:00,
2013-01-13 19:08:00,3.4,-3.3,30.16,West,261,5.0,10.0,73,0.00,,BKN120,0.00,VWS V14.01,2013-01-14 01:08:00,
2013-01-13 19:13:00,3.4,-3.3,30.16,West,260,6.0,6.0,73,0.00,,BKN120,0.00,VWS V14.01,2013-01-14 01:13:00,
2013-01-13 19:15:00,3.4,-3.3,30.17,West,260,6.0,9.0,73,0.00,,,0.00,VWS V15.00,2013-01-14 01:15:00,
2013-01-13 19:18:00,3.2,-3.5,30.17,West,260,11.0,11.0,73,0.00,,BKN120,0.00,VWS V14.01,2013-01-14 01:18:00,
2013-01-13 19:23:00,3.2,-3.5,30.17,West,259,7.0,11.0,73,0.00,,BKN120,0.00,VWS V14.01,2013-01-14 01:23:00,
2013-01-13 19:28:00,3.2,-3.5,30.17,WSW,258,5.0,11.0,73,0.00,,BKN120,0.00,VWS V14.01,2013-01-14 01:28:00,
2013-01-13 19:30:00,3.0,-3.7,30.17,WSW,258,2.0,11.0,73,0.00,,,0.00,VWS V15.00,2013-01-14 01:30:00,
2013-01-13 19:33:00,3.0,-3.7,30.17,West,259,5.0,10.0,73,0.00,,BKN120,0.00,VWS V14.01,2013-01-14 01:33:00,
2013-01-13 19:38:00,3.0,-3.7,30.17,WSW,258,7.0,10.0,73,0.00,,BKN120,0.00,VWS V14.01,2013-01-14 01:38:00,
2013-01-13 19:44:00,3.0,-3.7,30.17,WSW,258,5.0,7.0,73,0.00,,BKN120,0.00,VWS V14.01,2013-01-14 01:44:00,
2013-01-13 19:45:00,3.0,-3.7,30.17,WSW,258,6.0,8.0,73,0.00,,,0.00,VWS V15.00,2013-01-14 01:45:00,
2013-01-13 19:49:00,3.0,-3.7,30.17,WSW,257,7.0,9.0,73,0.00,,BKN120,0.00,VWS V14.01,2013-01-14 01:49:00,
2013-01-13 19:54:00,3.0,-3.7,30.17,WSW,255,4.0,10.0,73,0.00,,BKN120,0.00,VWS V14.01,2013-01-14 01:54:00,